Time;durP1;ratioP1;P1;durP2;ratioP2;P2;SDS_P1;SDS_P2;PMS_P1;PMS_P2;Temp;Humidity;BMP_temperature;BMP_pressure;BME280_temperature;BME280_humidity;BME280_pressure;Samples;Min_cycle;Max_cycle;Signal;HPM_P1;HPM_P2
2022/02/17 00:00:30;;;;;;;6.83;1.60;;;;;;;;;;4916543;29;20398;-73
2022/02/17 00:02:56;;;;;;;6.20;1.70;;;;;;;;;;4928195;29;20219;-73
2022/02/17 00:05:22;;;;;;;6.03;2.23;;;;;;;;;;4900790;29;20744;-74
2022/02/17 00:07:50;;;;;;;8.20;2.50;;;;;;;;;;4921146;29;20226;-75
2022/02/17 00:10:19;;;;;;;10.10;2.63;;;;;;;;;;4904083;28;20221;-75
2022/02/17 00:12:48;;;;;;;7.00;2.00;;;;;;;;;;4917459;29;20220;-76
2022/02/17 00:15:14;;;;;;;5.80;1.97;;;;;;;;;;4900684;29;20326;-75
2022/02/17 00:17:39;;;;;;;7.43;2.20;;;;;;;;;;4902370;29;20240;-76
2022/02/17 00:20:05;;;;;;;9.23;2.20;;;;;;;;;;4919807;28;20241;-75
2022/02/17 00:22:31;;;;;;;7.13;1.90;;;;;;;;;;4934772;29;20235;-76
2022/02/17 00:24:56;;;;;;;6.77;2.27;;;;;;;;;;4921773;29;20222;-75
2022/02/17 00:27:22;;;;;;;7.17;2.07;;;;;;;;;;4920159;28;20262;-77
2022/02/17 00:29:50;;;;;;;10.00;2.53;;;;;;;;;;4919489;29;20224;-76
2022/02/17 00:32:19;;;;;;;9.23;2.73;;;;;;;;;;4915963;29;20227;-76
2022/02/17 00:34:44;;;;;;;7.27;2.30;;;;;;;;;;4915684;29;20258;-76
2022/02/17 00:37:13;;;;;;;8.13;2.43;;;;;;;;;;4918735;28;20255;-76
2022/02/17 00:39:40;;;;;;;8.00;2.33;;;;;;;;;;4921597;29;20740;-75
2022/02/17 00:42:06;;;;;;;9.10;2.33;;;;;;;;;;4930904;29;21004;-75
2022/02/17 00:44:34;;;;;;;11.63;2.70;;;;;;;;;;4913618;29;20228;-76
2022/02/17 00:47:02;;;;;;;10.37;2.60;;;;;;;;;;4935491;29;20240;-76
2022/02/17 00:49:30;;;;;;;6.10;1.97;;;;;;;;;;4893244;29;20228;-76
2022/02/17 00:51:58;;;;;;;12.77;2.77;;;;;;;;;;4916362;29;20252;-75
2022/02/17 00:54:24;;;;;;;9.10;2.50;;;;;;;;;;4917068;29;20637;-75
2022/02/17 00:56:49;;;;;;;11.63;2.80;;;;;;;;;;4900911;29;20236;-75
2022/02/17 00:59:17;;;;;;;8.07;2.40;;;;;;;;;;4908241;28;20219;-74
2022/02/17 01:01:46;;;;;;;6.90;2.30;;;;;;;;;;4931896;29;20227;-74
2022/02/17 01:04:15;;;;;;;6.00;2.47;;;;;;;;;;4896260;29;20224;-74
2022/02/17 01:06:43;;;;;;;7.80;2.40;;;;;;;;;;4931664;29;20785;-74
2022/02/17 01:09:11;;;;;;;10.43;2.40;;;;;;;;;;4889287;28;20223;-74
2022/02/17 01:11:39;;;;;;;9.03;2.33;;;;;;;;;;4913399;29;20220;-75
2022/02/17 01:14:05;;;;;;;11.20;2.50;;;;;;;;;;4904150;28;20219;-74
2022/02/17 01:16:30;;;;;;;7.77;2.30;;;;;;;;;;4918709;29;20266;-74
2022/02/17 01:18:57;;;;;;;6.03;2.20;;;;;;;;;;4916142;29;20280;-74
2022/02/17 01:21:26;;;;;;;7.83;2.13;;;;;;;;;;4883468;29;20291;-77
2022/02/17 01:23:58;;;;;;;10.23;2.57;;;;;;;;;;4918426;29;20595;-76
2022/02/17 01:26:24;;;;;;;10.20;2.73;;;;;;;;;;4949687;28;20219;-75
2022/02/17 01:28:54;;;;;;;9.60;2.70;;;;;;;;;;4916890;29;20688;-76
2022/02/17 01:31:26;;;;;;;11.33;2.40;;;;;;;;;;4898880;29;20231;-76
2022/02/17 01:34:09;;;;;;;10.13;2.80;;;;;;;;;;4911984;29;20734;-75
2022/02/17 01:36:39;;;;;;;9.43;2.47;;;;;;;;;;4915641;29;20228;-76
2022/02/17 01:39:04;;;;;;;12.27;2.47;;;;;;;;;;4915726;28;20255;-75
2022/02/17 01:41:34;;;;;;;11.23;2.83;;;;;;;;;;4918067;29;20231;-76
2022/02/17 01:44:05;;;;;;;5.83;1.73;;;;;;;;;;4918808;29;20237;-76
2022/02/17 01:46:49;;;;;;;10.27;2.83;;;;;;;;;;4931240;29;20232;-75
2022/02/17 01:49:21;;;;;;;12.77;2.70;;;;;;;;;;4917178;29;20224;-74
2022/02/17 01:51:47;;;;;;;8.87;2.57;;;;;;;;;;4902377;29;20223;-75
2022/02/17 01:54:18;;;;;;;9.97;2.80;;;;;;;;;;4916657;28;20603;-74
2022/02/17 01:56:48;;;;;;;8.43;2.40;;;;;;;;;;4916568;29;20257;-75
2022/02/17 01:59:15;;;;;;;10.30;2.67;;;;;;;;;;4914335;29;20311;-75
2022/02/17 02:01:46;;;;;;;9.47;2.47;;;;;;;;;;4934370;29;20223;-76
2022/02/17 02:04:11;;;;;;;5.63;1.77;;;;;;;;;;4902172;28;20323;-75
2022/02/17 02:06:39;;;;;;;9.33;3.17;;;;;;;;;;4915333;29;20224;-75
2022/02/17 02:09:07;;;;;;;8.43;1.97;;;;;;;;;;4892782;28;20235;-74
2022/02/17 02:12:09;;;;;;;10.73;2.50;;;;;;;;;;4912998;29;20252;-74
2022/02/17 02:14:48;;;;;;;8.27;2.50;;;;;;;;;;4885103;29;20224;-74
2022/02/17 02:17:21;;;;;;;8.90;2.37;;;;;;;;;;4901606;29;20603;-75
2022/02/17 02:19:47;;;;;;;6.33;2.50;;;;;;;;;;4900143;29;20223;-75
2022/02/17 02:22:18;;;;;;;10.20;2.67;;;;;;;;;;4897932;29;20244;-74
2022/02/17 02:24:46;;;;;;;9.93;2.67;;;;;;;;;;4899954;29;20227;-74
2022/02/17 02:27:14;;;;;;;10.30;2.80;;;;;;;;;;4900918;28;20656;-74
2022/02/17 02:29:44;;;;;;;8.97;2.70;;;;;;;;;;4901756;29;20220;-75
2022/02/17 02:32:14;;;;;;;9.47;2.30;;;;;;;;;;4895007;29;20307;-74
2022/02/17 02:34:40;;;;;;;10.47;2.47;;;;;;;;;;4864518;29;20281;-73
2022/02/17 02:37:11;;;;;;;11.90;3.17;;;;;;;;;;4948531;28;20270;-74
2022/02/17 02:39:39;;;;;;;9.67;2.60;;;;;;;;;;4948916;28;20650;-74
2022/02/17 02:42:07;;;;;;;9.37;2.63;;;;;;;;;;4899664;29;20319;-73
2022/02/17 02:44:36;;;;;;;8.47;2.20;;;;;;;;;;4898622;29;20224;-73
2022/02/17 02:47:03;;;;;;;10.93;2.50;;;;;;;;;;4921648;29;20251;-74
2022/02/17 02:49:36;;;;;;;8.77;2.60;;;;;;;;;;4884385;29;20224;-72
2022/02/17 02:52:03;;;;;;;9.50;2.27;;;;;;;;;;4929208;29;20262;-72
2022/02/17 02:54:40;;;;;;;7.87;2.30;;;;;;;;;;4919399;29;20235;-72
2022/02/17 02:57:09;;;;;;;9.30;2.47;;;;;;;;;;4917063;29;20248;-73
2022/02/17 02:59:41;;;;;;;10.03;2.20;;;;;;;;;;4898080;29;20302;-72
2022/02/17 03:02:09;;;;;;;6.27;2.50;;;;;;;;;;4927168;28;20223;-73
2022/02/17 03:04:37;;;;;;;9.00;2.30;;;;;;;;;;4917238;29;20243;-72
2022/02/17 03:07:12;;;;;;;10.03;2.00;;;;;;;;;;4935214;28;20604;-73
2022/02/17 03:09:45;;;;;;;7.23;2.23;;;;;;;;;;4885134;29;20294;-73
2022/02/17 03:12:14;;;;;;;5.77;1.93;;;;;;;;;;4912366;28;20227;-73
2022/02/17 03:14:42;;;;;;;11.97;2.53;;;;;;;;;;4901637;29;20219;-73
2022/02/17 03:17:15;;;;;;;7.73;2.53;;;;;;;;;;4917121;29;20315;-73
2022/02/17 03:19:43;;;;;;;6.50;1.90;;;;;;;;;;4911333;29;20332;-74
2022/02/17 03:22:15;;;;;;;8.87;2.20;;;;;;;;;;4894419;28;20223;-74
2022/02/17 03:24:41;;;;;;;8.73;2.40;;;;;;;;;;4886165;29;20239;-74
2022/02/17 03:27:08;;;;;;;11.57;2.43;;;;;;;;;;4903892;29;20220;-73
2022/02/17 03:29:33;;;;;;;10.13;2.37;;;;;;;;;;4882184;29;20283;-73
2022/02/17 03:32:03;;;;;;;6.43;2.20;;;;;;;;;;4892266;28;20234;-74
2022/02/17 03:34:28;;;;;;;9.23;2.17;;;;;;;;;;4900752;29;20235;-73
2022/02/17 03:36:57;;;;;;;6.70;1.90;;;;;;;;;;4907787;29;20291;-76
2022/02/17 03:39:26;;;;;;;9.73;2.20;;;;;;;;;;4918799;29;20231;-75
2022/02/17 03:42:15;;;;;;;7.73;2.13;;;;;;;;;;4942331;28;20281;-76
2022/02/17 03:44:40;;;;;;;10.33;2.40;;;;;;;;;;4906585;29;20226;-74
2022/02/17 03:47:15;;;;;;;5.37;2.10;;;;;;;;;;4904477;29;20306;-75
2022/02/17 03:49:47;;;;;;;6.47;2.60;;;;;;;;;;4935827;29;20242;-74
2022/02/17 03:52:17;;;;;;;7.70;2.60;;;;;;;;;;4906682;28;20305;-74
2022/02/17 03:54:51;;;;;;;11.23;2.80;;;;;;;;;;4901663;29;20239;-74
2022/02/17 03:57:19;;;;;;;13.30;3.00;;;;;;;;;;4897345;28;20222;-75
2022/02/17 03:59:47;;;;;;;7.47;2.37;;;;;;;;;;4922862;29;20230;-74
2022/02/17 04:02:15;;;;;;;9.50;2.40;;;;;;;;;;4898561;29;20219;-75
2022/02/17 04:04:41;;;;;;;10.23;2.73;;;;;;;;;;4916281;29;20632;-75
2022/02/17 04:07:09;;;;;;;9.50;2.60;;;;;;;;;;4915567;29;20226;-75
2022/02/17 04:09:36;;;;;;;5.63;2.10;;;;;;;;;;4911757;29;20746;-75
2022/02/17 04:12:02;;;;;;;11.70;2.73;;;;;;;;;;4934652;29;20269;-76
2022/02/17 04:14:35;;;;;;;7.93;2.60;;;;;;;;;;4887876;29;20338;-75
2022/02/17 04:17:04;;;;;;;11.07;2.70;;;;;;;;;;4923777;29;20216;-76
2022/02/17 04:19:37;;;;;;;11.13;2.80;;;;;;;;;;4932605;29;20223;-75
2022/02/17 04:22:08;;;;;;;12.73;2.80;;;;;;;;;;4942864;28;20223;-75
2022/02/17 04:24:39;;;;;;;8.53;2.53;;;;;;;;;;4924700;29;20255;-78
2022/02/17 04:27:11;;;;;;;10.77;2.53;;;;;;;;;;4950144;28;20749;-76
2022/02/17 04:29:38;;;;;;;9.80;2.53;;;;;;;;;;4903698;29;20232;-74
2022/02/17 04:32:07;;;;;;;8.37;2.87;;;;;;;;;;4921470;28;20233;-74
2022/02/17 04:34:35;;;;;;;8.70;2.93;;;;;;;;;;4921846;29;20235;-74
2022/02/17 04:37:06;;;;;;;4.53;1.57;;;;;;;;;;4951706;28;20227;-74
2022/02/17 04:39:34;;;;;;;11.27;2.93;;;;;;;;;;4887845;29;20243;-75
2022/02/17 04:42:18;;;;;;;12.03;2.87;;;;;;;;;;4913071;29;20242;-73
2022/02/17 04:44:45;;;;;;;11.73;2.60;;;;;;;;;;4927882;29;20232;-73
2022/02/17 04:47:10;;;;;;;12.30;3.43;;;;;;;;;;4902900;29;20236;-71
2022/02/17 04:49:36;;;;;;;8.37;2.60;;;;;;;;;;4911345;29;20224;-71
2022/02/17 04:52:02;;;;;;;12.40;3.00;;;;;;;;;;4929575;29;20224;-71
2022/02/17 04:54:29;;;;;;;10.53;2.60;;;;;;;;;;4913034;29;20247;-72
2022/02/17 04:57:00;;;;;;;9.97;2.57;;;;;;;;;;4912122;29;20251;-72
2022/02/17 04:59:28;;;;;;;7.77;2.10;;;;;;;;;;4929533;29;20228;-72
2022/02/17 05:01:59;;;;;;;8.57;2.40;;;;;;;;;;4896919;29;20243;-72
2022/02/17 05:04:50;;;;;;;12.80;3.10;;;;;;;;;;4911743;29;20249;-72
2022/02/17 05:07:24;;;;;;;9.50;2.77;;;;;;;;;;4899052;29;20247;-71
2022/02/17 05:09:54;;;;;;;12.00;3.30;;;;;;;;;;4911455;29;20220;-72
2022/02/17 05:12:37;;;;;;;8.70;2.47;;;;;;;;;;4923494;29;20335;-73
2022/02/17 05:15:03;;;;;;;8.27;2.57;;;;;;;;;;4915159;28;20236;-73
2022/02/17 05:17:31;;;;;;;15.93;3.03;;;;;;;;;;4921638;29;20256;-73
2022/02/17 05:19:58;;;;;;;12.43;3.00;;;;;;;;;;4935394;29;20228;-72
2022/02/17 05:22:43;;;;;;;12.03;2.67;;;;;;;;;;4946686;28;20225;-73
2022/02/17 05:25:22;;;;;;;7.97;2.73;;;;;;;;;;4931522;29;20705;-73
2022/02/17 05:27:56;;;;;;;10.90;2.90;;;;;;;;;;4919258;29;20717;-73
2022/02/17 05:30:40;;;;;;;15.70;3.30;;;;;;;;;;4901265;29;20275;-73
2022/02/17 05:33:47;;;;;;;8.43;2.20;;;;;;;;;;4924231;28;20595;-73
2022/02/17 05:36:33;;;;;;;9.40;2.47;;;;;;;;;;4921322;28;20246;-74
2022/02/17 05:39:22;;;;;;;7.03;2.40;;;;;;;;;;4920673;28;20239;-73
2022/02/17 05:41:56;;;;;;;10.70;2.90;;;;;;;;;;4918422;29;20234;-74
2022/02/17 05:44:22;;;;;;;12.83;3.03;;;;;;;;;;4906460;29;20315;-73
2022/02/17 05:46:50;;;;;;;16.23;2.57;;;;;;;;;;4916962;29;20259;-73
2022/02/17 05:49:17;;;;;;;9.40;2.83;;;;;;;;;;4909431;28;20220;-73
2022/02/17 05:51:43;;;;;;;10.10;2.63;;;;;;;;;;4917891;29;20216;-73
2022/02/17 05:54:10;;;;;;;11.77;3.03;;;;;;;;;;4893145;29;20606;-72
2022/02/17 05:56:40;;;;;;;9.00;2.30;;;;;;;;;;4900465;29;21025;-73
2022/02/17 05:59:06;;;;;;;10.87;3.03;;;;;;;;;;4922537;28;20321;-74
2022/02/17 06:01:34;;;;;;;10.10;3.23;;;;;;;;;;4901859;29;20253;-73
2022/02/17 06:04:04;;;;;;;10.83;2.40;;;;;;;;;;4928250;29;20244;-73
2022/02/17 06:06:36;;;;;;;9.50;2.40;;;;;;;;;;4915951;29;20709;-73
2022/02/17 06:09:05;;;;;;;11.17;2.73;;;;;;;;;;4907630;28;20786;-73
2022/02/17 06:11:32;;;;;;;5.53;2.03;;;;;;;;;;4917610;29;20254;-74
2022/02/17 06:14:09;;;;;;;8.07;2.77;;;;;;;;;;4930422;29;20216;-73
2022/02/17 06:16:40;;;;;;;8.90;2.50;;;;;;;;;;4914757;29;20713;-74
2022/02/17 06:19:08;;;;;;;9.77;2.77;;;;;;;;;;4920527;28;20784;-74
2022/02/17 06:21:37;;;;;;;9.30;2.43;;;;;;;;;;4903023;29;20677;-74
2022/02/17 06:24:05;;;;;;;7.80;2.60;;;;;;;;;;4929525;29;20251;-74
2022/02/17 06:26:30;;;;;;;13.37;3.77;;;;;;;;;;4899256;29;20732;-73
2022/02/17 06:28:56;;;;;;;7.53;2.67;;;;;;;;;;4901012;29;20228;-73
2022/02/17 06:31:21;;;;;;;8.57;2.80;;;;;;;;;;4901376;28;20238;-73
2022/02/17 06:33:47;;;;;;;6.67;2.00;;;;;;;;;;4917779;29;20739;-73
2022/02/17 06:36:17;;;;;;;11.77;2.80;;;;;;;;;;4914382;29;20244;-73
2022/02/17 06:38:42;;;;;;;11.23;2.60;;;;;;;;;;4899442;29;20224;-73
2022/02/17 06:41:10;;;;;;;11.67;2.93;;;;;;;;;;4934288;28;20231;-72
2022/02/17 06:43:36;;;;;;;11.33;2.50;;;;;;;;;;4917915;29;20234;-74
2022/02/17 06:46:06;;;;;;;6.90;2.60;;;;;;;;;;4916286;29;20307;-74
2022/02/17 06:48:33;;;;;;;10.33;2.53;;;;;;;;;;4868333;29;20228;-74
2022/02/17 06:50:59;;;;;;;7.60;2.13;;;;;;;;;;4899080;29;20238;-74
2022/02/17 06:53:24;;;;;;;10.97;3.13;;;;;;;;;;4932846;28;20219;-74
2022/02/17 06:55:55;;;;;;;6.67;2.37;;;;;;;;;;4917971;29;20323;-74
2022/02/17 06:58:22;;;;;;;7.37;2.00;;;;;;;;;;4898111;29;20695;-73
2022/02/17 07:00:50;;;;;;;6.13;2.07;;;;;;;;;;4911634;29;20782;-73
2022/02/17 07:03:15;;;;;;;10.27;3.00;;;;;;;;;;4913463;29;20220;-76
2022/02/17 07:05:43;;;;;;;13.10;2.53;;;;;;;;;;4913102;29;20247;-74
2022/02/17 07:08:08;;;;;;;9.80;2.77;;;;;;;;;;4889069;29;20250;-75
2022/02/17 07:10:59;;;;;;;7.70;2.17;;;;;;;;;;4898732;29;20251;-74
2022/02/17 07:13:30;;;;;;;10.37;2.80;;;;;;;;;;4912214;29;20249;-76
2022/02/17 07:15:56;;;;;;;11.17;3.40;;;;;;;;;;4901909;29;20232;-75
2022/02/17 07:18:26;;;;;;;10.67;2.97;;;;;;;;;;4906549;29;20220;-75
2022/02/17 07:20:54;;;;;;;10.03;2.70;;;;;;;;;;4914463;29;20223;-75
2022/02/17 07:23:25;;;;;;;9.33;2.77;;;;;;;;;;4909719;29;20701;-77
2022/02/17 07:25:54;;;;;;;7.47;2.47;;;;;;;;;;4893227;29;20729;-75
2022/02/17 07:28:22;;;;;;;9.93;2.60;;;;;;;;;;4933301;28;20223;-76
2022/02/17 07:30:48;;;;;;;7.83;2.77;;;;;;;;;;4920117;29;20231;-77
2022/02/17 07:33:14;;;;;;;7.90;2.37;;;;;;;;;;4907103;29;20220;-78
2022/02/17 07:35:39;;;;;;;9.87;3.00;;;;;;;;;;4880146;29;20310;-76
2022/02/17 07:38:08;;;;;;;9.23;2.50;;;;;;;;;;4896207;29;20718;-76
2022/02/17 07:40:36;;;;;;;7.27;2.20;;;;;;;;;;4883144;29;20638;-76
2022/02/17 07:43:01;;;;;;;9.13;2.17;;;;;;;;;;4882905;29;20306;-76
2022/02/17 07:45:29;;;;;;;10.60;2.87;;;;;;;;;;4909850;29;20266;-76
2022/02/17 07:47:54;;;;;;;8.17;2.53;;;;;;;;;;4933394;29;20234;-75
2022/02/17 07:50:28;;;;;;;12.40;3.20;;;;;;;;;;4916611;28;20603;-77
2022/02/17 07:52:54;;;;;;;7.10;2.43;;;;;;;;;;4917259;29;20246;-76
2022/02/17 07:55:20;;;;;;;8.87;2.37;;;;;;;;;;4875401;29;20224;-73
2022/02/17 07:57:48;;;;;;;7.90;2.60;;;;;;;;;;4904373;29;20259;-74
2022/02/17 08:00:16;;;;;;;12.80;2.80;;;;;;;;;;4900677;29;20244;-73
2022/02/17 08:02:42;;;;;;;11.47;2.83;;;;;;;;;;4897319;29;20228;-74
2022/02/17 08:05:08;;;;;;;6.43;2.07;;;;;;;;;;4893002;29;20228;-74
2022/02/17 08:07:36;;;;;;;8.37;1.93;;;;;;;;;;4909581;29;20601;-76
2022/02/17 08:10:28;;;;;;;10.13;2.70;;;;;;;;;;4913812;29;20235;-75
2022/02/17 08:12:53;;;;;;;8.13;2.40;;;;;;;;;;4876573;29;20229;-75
2022/02/17 08:15:21;;;;;;;9.77;2.60;;;;;;;;;;4918027;28;20219;-74
2022/02/17 08:17:47;;;;;;;8.60;2.27;;;;;;;;;;4934112;29;20327;-73
2022/02/17 08:20:15;;;;;;;7.17;2.53;;;;;;;;;;4911772;29;20224;-73
2022/02/17 08:22:52;;;;;;;10.43;2.20;;;;;;;;;;4914109;29;20256;-75
2022/02/17 08:25:20;;;;;;;5.87;2.40;;;;;;;;;;4897954;29;20219;-74
2022/02/17 08:27:46;;;;;;;8.50;2.50;;;;;;;;;;4931714;29;20236;-75
2022/02/17 08:30:14;;;;;;;8.63;2.50;;;;;;;;;;4917062;29;20756;-74
2022/02/17 08:32:42;;;;;;;8.70;2.40;;;;;;;;;;4912272;29;20622;-74
2022/02/17 08:35:13;;;;;;;7.63;2.20;;;;;;;;;;4903701;29;20230;-75
2022/02/17 08:37:42;;;;;;;7.43;2.23;;;;;;;;;;4901951;29;20746;-75
2022/02/17 08:40:10;;;;;;;10.30;2.13;;;;;;;;;;4900592;29;20232;-75
2022/02/17 08:42:38;;;;;;;9.83;2.70;;;;;;;;;;4909598;29;20710;-74
2022/02/17 08:45:04;;;;;;;8.47;2.10;;;;;;;;;;4916535;29;20234;-74
2022/02/17 08:47:32;;;;;;;9.97;3.03;;;;;;;;;;4900316;29;20235;-74
2022/02/17 08:50:00;;;;;;;10.90;2.97;;;;;;;;;;4932890;29;20228;-73
2022/02/17 08:52:31;;;;;;;8.40;2.43;;;;;;;;;;4917102;29;20609;-74
2022/02/17 08:54:59;;;;;;;6.00;2.57;;;;;;;;;;4911690;29;20228;-73
2022/02/17 08:57:29;;;;;;;5.87;2.40;;;;;;;;;;4885223;29;20215;-73
2022/02/17 08:59:54;;;;;;;7.87;2.60;;;;;;;;;;4916624;29;20227;-74
2022/02/17 09:02:20;;;;;;;6.10;1.87;;;;;;;;;;4916553;29;20228;-73
2022/02/17 09:04:46;;;;;;;8.30;2.77;;;;;;;;;;4916026;29;20613;-73
2022/02/17 09:07:11;;;;;;;8.93;2.60;;;;;;;;;;4920155;29;20224;-74
2022/02/17 09:09:39;;;;;;;9.03;2.20;;;;;;;;;;4934788;29;20228;-74
2022/02/17 09:12:08;;;;;;;7.77;2.40;;;;;;;;;;4922446;28;20227;-73
2022/02/17 09:14:39;;;;;;;12.00;2.67;;;;;;;;;;4934929;29;20247;-72
2022/02/17 09:17:09;;;;;;;7.93;2.27;;;;;;;;;;4948880;28;20693;-73
2022/02/17 09:19:39;;;;;;;8.27;2.37;;;;;;;;;;4911750;29;20705;-73
2022/02/17 09:22:07;;;;;;;12.17;2.53;;;;;;;;;;4929217;28;20251;-73
2022/02/17 09:24:39;;;;;;;8.97;2.40;;;;;;;;;;4908101;29;20245;-74
2022/02/17 09:27:07;;;;;;;10.87;3.03;;;;;;;;;;4930920;29;20260;-73
2022/02/17 09:29:39;;;;;;;10.37;2.73;;;;;;;;;;4891658;29;20228;-74
2022/02/17 09:32:09;;;;;;;10.40;2.43;;;;;;;;;;4899898;29;20655;-74
2022/02/17 09:34:40;;;;;;;8.37;2.77;;;;;;;;;;4900414;29;20235;-72
2022/02/17 09:37:06;;;;;;;10.40;3.23;;;;;;;;;;4918006;28;20270;-72
2022/02/17 09:39:36;;;;;;;8.47;3.10;;;;;;;;;;4890343;29;20235;-72
2022/02/17 09:42:06;;;;;;;10.67;3.00;;;;;;;;;;4882824;29;20307;-73
2022/02/17 09:44:35;;;;;;;10.73;2.43;;;;;;;;;;4905696;29;20661;-72
2022/02/17 09:47:01;;;;;;;7.63;1.90;;;;;;;;;;4924452;29;20331;-72
2022/02/17 09:49:30;;;;;;;9.27;2.50;;;;;;;;;;4918739;29;20649;-72
2022/02/17 09:51:58;;;;;;;12.97;3.07;;;;;;;;;;4934327;29;20727;-71
2022/02/17 09:54:23;;;;;;;6.37;1.63;;;;;;;;;;4899060;29;20303;-71
2022/02/17 09:56:51;;;;;;;8.30;2.00;;;;;;;;;;4899965;29;20361;-70
2022/02/17 09:59:23;;;;;;;6.50;2.43;;;;;;;;;;4948310;28;20278;-71
2022/02/17 10:01:57;;;;;;;8.90;2.60;;;;;;;;;;4949067;28;20223;-70
2022/02/17 10:04:26;;;;;;;6.90;2.30;;;;;;;;;;4916165;29;20231;-72
2022/02/17 10:06:55;;;;;;;9.33;2.60;;;;;;;;;;4900007;29;20231;-71
2022/02/17 10:09:21;;;;;;;10.17;2.13;;;;;;;;;;4947130;28;20234;-71
2022/02/17 10:11:51;;;;;;;11.87;2.70;;;;;;;;;;4925987;28;20228;-71
2022/02/17 10:14:21;;;;;;;9.57;2.43;;;;;;;;;;4920476;29;20232;-72
2022/02/17 10:17:09;;;;;;;9.80;2.37;;;;;;;;;;4899863;29;20239;-74
2022/02/17 10:19:37;;;;;;;9.10;2.10;;;;;;;;;;4909278;29;20232;-72
2022/02/17 10:22:07;;;;;;;9.10;2.07;;;;;;;;;;4898566;29;20220;-72
2022/02/17 10:24:38;;;;;;;7.00;2.10;;;;;;;;;;4899535;29;20697;-71
2022/02/17 10:27:05;;;;;;;6.57;2.17;;;;;;;;;;4933537;28;20251;-71
2022/02/17 10:29:37;;;;;;;6.77;2.20;;;;;;;;;;4901994;29;20224;-70
2022/02/17 10:32:10;;;;;;;7.80;2.00;;;;;;;;;;4913357;29;20321;-71
2022/02/17 10:34:38;;;;;;;9.73;2.47;;;;;;;;;;4931046;28;20306;-72
2022/02/17 10:37:12;;;;;;;7.40;1.93;;;;;;;;;;4933295;28;20223;-70
2022/02/17 10:39:42;;;;;;;7.13;2.00;;;;;;;;;;4903400;29;20228;-70
2022/02/17 10:42:09;;;;;;;11.83;2.60;;;;;;;;;;4898569;29;20594;-72
2022/02/17 10:44:42;;;;;;;8.97;2.30;;;;;;;;;;4919579;28;20228;-71
2022/02/17 10:47:20;;;;;;;13.30;2.47;;;;;;;;;;4930318;29;20295;-72
2022/02/17 10:49:54;;;;;;;0.10;0.10;;;;;;;;;;4911691;29;20231;-71
2022/02/17 10:52:31;;;;;;;0.00;0.00;;;;;;;;;;4898690;29;20224;-73
2022/02/17 10:55:22;;;;;;;0.97;0.83;;;;;;;;;;4930124;29;20322;-71
2022/02/17 10:57:51;;;;;;;0.20;0.20;;;;;;;;;;4925404;28;20236;-73
2022/02/17 11:00:21;;;;;;;0.73;0.73;;;;;;;;;;4904775;29;20220;-73
2022/02/17 11:02:52;;;;;;;0.40;0.40;;;;;;;;;;4929434;29;20228;-73
2022/02/17 11:05:18;;;;;;;0.30;0.30;;;;;;;;;;4915304;28;20278;-73
2022/02/17 11:07:47;;;;;;;0.00;0.00;;;;;;;;;;4933747;29;20231;-73
2022/02/17 11:10:17;;;;;;;0.13;0.13;;;;;;;;;;4886213;29;20227;-72
2022/02/17 11:12:48;;;;;;;3.90;0.60;;;;;;;;;;4899798;29;20246;-74
2022/02/17 11:15:13;;;;;;;0.00;0.00;;;;;;;;;;4914267;29;20239;-73
2022/02/17 11:17:43;;;;;;;0.00;0.00;;;;;;;;;;4904298;29;20219;-71
2022/02/17 11:20:17;;;;;;;0.00;0.00;;;;;;;;;;4929302;28;20580;-73
2022/02/17 11:22:47;;;;;;;0.10;0.10;;;;;;;;;;4901740;29;20234;-73
2022/02/17 11:25:15;;;;;;;0.10;0.10;;;;;;;;;;4880824;29;20359;-74
2022/02/17 11:27:57;;;;;;;0.10;0.10;;;;;;;;;;4933239;29;20743;-72
2022/02/17 11:30:28;;;;;;;0.00;0.00;;;;;;;;;;4919689;29;20318;-72
2022/02/17 11:33:24;;;;;;;0.10;0.10;;;;;;;;;;4898562;29;20606;-72
2022/02/17 11:36:22;;;;;;;0.10;0.10;;;;;;;;;;4947066;28;20936;-71
2022/02/17 11:39:12;;;;;;;0.10;0.10;;;;;;;;;;4934196;28;20287;-72
2022/02/17 11:41:37;;;;;;;0.10;0.10;;;;;;;;;;4901382;29;20227;-75
2022/02/17 11:44:11;;;;;;;0.10;0.10;;;;;;;;;;4898728;29;20289;-72
2022/02/17 11:46:44;;;;;;;0.10;0.10;;;;;;;;;;4875033;29;20266;-72
2022/02/17 11:49:29;;;;;;;0.20;0.20;;;;;;;;;;4924856;28;20223;-73
2022/02/17 11:52:14;;;;;;;0.07;0.07;;;;;;;;;;4933808;28;20223;-71
2022/02/17 11:54:40;;;;;;;0.10;0.10;;;;;;;;;;4901089;29;20231;-72
2022/02/17 11:57:34;;;;;;;0.17;0.17;;;;;;;;;;4948586;28;20817;-74
2022/02/17 12:00:32;;;;;;;0.10;0.10;;;;;;;;;;4914125;29;20219;-72
2022/02/17 12:03:01;;;;;;;0.00;0.00;;;;;;;;;;4926596;29;20612;-73
2022/02/17 12:05:28;;;;;;;0.57;0.57;;;;;;;;;;4918522;29;20228;-73
2022/02/17 12:08:22;;;;;;;0.10;0.10;;;;;;;;;;4919488;29;20220;-74
2022/02/17 12:10:48;;;;;;;0.10;0.10;;;;;;;;;;4926425;28;20241;-73
2022/02/17 12:13:28;;;;;;;0.00;0.00;;;;;;;;;;4920664;28;20709;-72
2022/02/17 12:15:57;;;;;;;0.23;0.23;;;;;;;;;;4923734;29;20224;-74
2022/02/17 12:18:25;;;;;;;0.10;0.10;;;;;;;;;;4941771;28;20265;-73
2022/02/17 12:20:58;;;;;;;0.10;0.10;;;;;;;;;;4903531;29;20254;-73
2022/02/17 12:23:24;;;;;;;0.13;0.13;;;;;;;;;;4907465;28;20223;-71
2022/02/17 12:25:55;;;;;;;0.27;0.27;;;;;;;;;;4921716;29;20311;-72
2022/02/17 12:28:23;;;;;;;0.30;0.30;;;;;;;;;;4916900;29;20220;-73
2022/02/17 12:30:50;;;;;;;0.00;0.00;;;;;;;;;;4902129;29;20312;-74
2022/02/17 12:33:20;;;;;;;0.00;0.00;;;;;;;;;;4933584;29;20239;-73
2022/02/17 12:35:51;;;;;;;0.00;0.00;;;;;;;;;;4911392;29;20773;-74
2022/02/17 12:38:22;;;;;;;0.00;0.00;;;;;;;;;;4921503;28;20223;-73
2022/02/17 12:40:47;;;;;;;0.07;0.07;;;;;;;;;;4927228;29;20286;-73
2022/02/17 12:43:44;;;;;;;0.13;0.13;;;;;;;;;;4910945;29;20319;-72
2022/02/17 12:46:18;;;;;;;0.00;0.00;;;;;;;;;;4902445;29;20247;-73
2022/02/17 12:48:46;;;;;;;6.47;1.40;;;;;;;;;;4886757;29;20616;-72
2022/02/17 12:51:27;;;;;;;10.27;1.90;;;;;;;;;;4897054;28;20231;-72
2022/02/17 12:54:01;;;;;;;5.60;1.80;;;;;;;;;;4920269;29;20262;-73
2022/02/17 12:56:30;;;;;;;7.60;2.20;;;;;;;;;;4908649;29;20295;-73
2022/02/17 12:59:17;;;;;;;7.83;1.83;;;;;;;;;;4917002;29;20227;-73
2022/02/17 13:01:57;;;;;;;11.27;3.30;;;;;;;;;;4898857;29;20374;-73
2022/02/17 13:04:23;;;;;;;13.77;2.70;;;;;;;;;;4921050;29;20228;-73
2022/02/17 13:06:54;;;;;;;7.87;2.03;;;;;;;;;;4911392;29;20224;-73
2022/02/17 13:09:31;;;;;;;11.73;2.13;;;;;;;;;;4916769;29;20228;-74
2022/02/17 13:11:59;;;;;;;10.47;2.40;;;;;;;;;;4899335;29;20718;-73
2022/02/17 13:14:31;;;;;;;11.53;2.53;;;;;;;;;;4932062;29;20232;-73
2022/02/17 13:17:08;;;;;;;10.97;2.70;;;;;;;;;;4886269;29;20232;-73
2022/02/17 13:19:44;;;;;;;11.90;2.80;;;;;;;;;;4914237;29;20227;-73
2022/02/17 13:22:18;;;;;;;9.47;2.07;;;;;;;;;;4899629;28;20235;-74
2022/02/17 13:24:55;;;;;;;7.77;2.20;;;;;;;;;;4907848;29;20749;-73
2022/02/17 13:27:21;;;;;;;6.03;1.70;;;;;;;;;;4931343;29;20767;-71
2022/02/17 13:29:58;;;;;;;15.30;3.03;;;;;;;;;;4899892;29;20232;-71
2022/02/17 13:32:27;;;;;;;12.23;2.43;;;;;;;;;;4884003;29;20694;-73
2022/02/17 13:35:06;;;;;;;10.37;2.80;;;;;;;;;;4869229;29;20232;-73
2022/02/17 13:38:07;;;;;;;8.13;2.43;;;;;;;;;;4932302;28;20231;-73
2022/02/17 13:41:06;;;;;;;10.77;2.93;;;;;;;;;;4933683;29;20231;-72
2022/02/17 13:43:43;;;;;;;9.50;2.80;;;;;;;;;;4854222;29;20609;-73
2022/02/17 13:46:11;;;;;;;11.00;3.37;;;;;;;;;;4886843;29;20651;-74
2022/02/17 13:48:39;;;;;;;8.87;2.90;;;;;;;;;;4920742;29;20248;-75
2022/02/17 13:51:18;;;;;;;11.97;2.90;;;;;;;;;;4930997;28;20243;-73
2022/02/17 13:53:48;;;;;;;14.37;3.30;;;;;;;;;;4933318;29;20262;-74
2022/02/17 13:56:20;;;;;;;13.27;2.80;;;;;;;;;;4916053;29;20224;-74
2022/02/17 13:58:59;;;;;;;9.20;2.70;;;;;;;;;;4885214;29;20234;-72
2022/02/17 14:01:35;;;;;;;8.50;2.30;;;;;;;;;;4897454;29;20228;-73
2022/02/17 14:04:06;;;;;;;6.43;1.60;;;;;;;;;;4914968;29;20799;-73
2022/02/17 14:06:31;;;;;;;9.47;2.40;;;;;;;;;;4899222;29;20224;-73
2022/02/17 14:09:02;;;;;;;8.50;2.50;;;;;;;;;;4930750;29;20231;-74
2022/02/17 14:11:36;;;;;;;6.93;2.37;;;;;;;;;;4916343;29;20708;-74
2022/02/17 14:14:03;;;;;;;8.87;2.70;;;;;;;;;;4946893;28;20654;-74
2022/02/17 14:16:30;;;;;;;9.00;2.13;;;;;;;;;;4925950;29;20323;-73
2022/02/17 14:18:58;;;;;;;6.77;1.80;;;;;;;;;;4903426;29;20223;-73
2022/02/17 14:21:24;;;;;;;8.80;2.73;;;;;;;;;;4901983;28;20215;-74
2022/02/17 14:23:52;;;;;;;7.13;1.90;;;;;;;;;;4880490;29;20233;-74
2022/02/17 14:26:21;;;;;;;5.23;1.73;;;;;;;;;;4910985;29;20228;-73
2022/02/17 14:28:46;;;;;;;8.43;2.63;;;;;;;;;;4916485;29;20233;-73
2022/02/17 14:31:12;;;;;;;11.27;2.63;;;;;;;;;;4933173;28;20228;-73
2022/02/17 14:33:42;;;;;;;12.17;2.63;;;;;;;;;;4901666;29;20235;-73
2022/02/17 14:36:12;;;;;;;9.37;2.10;;;;;;;;;;4899481;29;20315;-72
2022/02/17 14:38:41;;;;;;;6.93;2.40;;;;;;;;;;4914896;29;20730;-74
2022/02/17 14:41:09;;;;;;;7.93;1.83;;;;;;;;;;4933286;28;20223;-73
2022/02/17 14:43:37;;;;;;;9.03;2.73;;;;;;;;;;4903806;29;20283;-73
2022/02/17 14:46:05;;;;;;;6.03;1.73;;;;;;;;;;4914405;29;20236;-73
2022/02/17 14:48:34;;;;;;;4.80;1.40;;;;;;;;;;4912454;29;20274;-74
2022/02/17 14:51:02;;;;;;;7.77;2.17;;;;;;;;;;4934449;28;20233;-72
2022/02/17 14:53:32;;;;;;;7.90;2.03;;;;;;;;;;4905090;29;20314;-73
2022/02/17 14:56:01;;;;;;;5.33;1.77;;;;;;;;;;4898104;29;20243;-72
2022/02/17 14:58:29;;;;;;;8.53;2.30;;;;;;;;;;4910063;29;20685;-72